sensor_id;sensor_type;location;lat;lon;timestamp;P1;durP1;ratioP1;P2;durP2;ratioP2
70247;SDS011;57641;51.416;5.506;2022-10-26T00:02:25;8.52;;;4.70;;
70247;SDS011;57641;51.416;5.506;2022-10-26T00:04:50;10.30;;;4.60;;
70247;SDS011;57641;51.416;5.506;2022-10-26T00:07:16;8.90;;;4.63;;
70247;SDS011;57641;51.416;5.506;2022-10-26T00:09:41;8.38;;;5.07;;
70247;SDS011;57641;51.416;5.506;2022-10-26T00:12:07;12.20;;;5.28;;
70247;SDS011;57641;51.416;5.506;2022-10-26T00:14:33;8.43;;;4.97;;
70247;SDS011;57641;51.416;5.506;2022-10-26T00:16:58;12.60;;;5.55;;
70247;SDS011;57641;51.416;5.506;2022-10-26T00:19:24;10.30;;;5.38;;
70247;SDS011;57641;51.416;5.506;2022-10-26T00:21:49;10.40;;;5.30;;
70247;SDS011;57641;51.416;5.506;2022-10-26T00:24:16;10.50;;;5.32;;
70247;SDS011;57641;51.416;5.506;2022-10-26T00:26:44;10.57;;;5.45;;
70247;SDS011;57641;51.416;5.506;2022-10-26T00:29:11;8.68;;;5.25;;
70247;SDS011;57641;51.416;5.506;2022-10-26T00:31:37;7.78;;;5.13;;
70247;SDS011;57641;51.416;5.506;2022-10-26T00:34:03;10.23;;;5.28;;
70247;SDS011;57641;51.416;5.506;2022-10-26T00:36:29;9.10;;;5.18;;
70247;SDS011;57641;51.416;5.506;2022-10-26T00:38:55;11.95;;;5.47;;
70247;SDS011;57641;51.416;5.506;2022-10-26T00:41:25;8.07;;;5.03;;
70247;SDS011;57641;51.416;5.506;2022-10-26T00:43:53;10.13;;;5.13;;
70247;SDS011;57641;51.416;5.506;2022-10-26T00:46:27;10.38;;;5.00;;
70247;SDS011;57641;51.416;5.506;2022-10-26T00:48:54;10.68;;;5.10;;
70247;SDS011;57641;51.416;5.506;2022-10-26T00:53:51;7.53;;;4.47;;
70247;SDS011;57641;51.416;5.506;2022-10-26T00:56:18;9.30;;;5.63;;
70247;SDS011;57641;51.416;5.506;2022-10-26T00:58:44;6.55;;;4.75;;
70247;SDS011;57641;51.416;5.506;2022-10-26T01:01:10;12.73;;;5.53;;
70247;SDS011;57641;51.416;5.506;2022-10-26T01:03:36;12.48;;;5.13;;
70247;SDS011;57641;51.416;5.506;2022-10-26T01:06:03;11.57;;;5.53;;
70247;SDS011;57641;51.416;5.506;2022-10-26T01:08:30;9.85;;;5.43;;
70247;SDS011;57641;51.416;5.506;2022-10-26T01:10:56;9.40;;;5.22;;
70247;SDS011;57641;51.416;5.506;2022-10-26T01:13:25;8.60;;;5.15;;
70247;SDS011;57641;51.416;5.506;2022-10-26T01:16:00;9.07;;;4.53;;
70247;SDS011;57641;51.416;5.506;2022-10-26T01:18:44;9.38;;;5.60;;
70247;SDS011;57641;51.416;5.506;2022-10-26T01:29:29;10.38;;;5.43;;
70247;SDS011;57641;51.416;5.506;2022-10-26T01:32:09;11.48;;;5.78;;
70247;SDS011;57641;51.416;5.506;2022-10-26T01:37:53;10.85;;;5.95;;
70247;SDS011;57641;51.416;5.506;2022-10-26T01:40:31;10.30;;;5.30;;
70247;SDS011;57641;51.416;5.506;2022-10-26T01:43:03;10.45;;;5.70;;
70247;SDS011;57641;51.416;5.506;2022-10-26T01:45:32;12.40;;;5.80;;
70247;SDS011;57641;51.416;5.506;2022-10-26T01:48:01;9.68;;;5.15;;
70247;SDS011;57641;51.416;5.506;2022-10-26T01:50:28;12.55;;;6.47;;
70247;SDS011;57641;51.416;5.506;2022-10-26T01:52:56;14.75;;;6.03;;
70247;SDS011;57641;51.416;5.506;2022-10-26T01:58:26;12.32;;;5.93;;
70247;SDS011;57641;51.416;5.506;2022-10-26T02:04:08;8.63;;;5.55;;
70247;SDS011;57641;51.416;5.506;2022-10-26T02:12:12;10.25;;;5.47;;
70247;SDS011;57641;51.416;5.506;2022-10-26T02:14:49;12.10;;;5.80;;
70247;SDS011;57641;51.416;5.506;2022-10-26T02:17:46;9.77;;;5.55;;
70247;SDS011;57641;51.416;5.506;2022-10-26T02:20:23;10.50;;;4.95;;
70247;SDS011;57641;51.416;5.506;2022-10-26T02:22:53;11.57;;;5.15;;
70247;SDS011;57641;51.416;5.506;2022-10-26T02:25:21;9.32;;;5.28;;
70247;SDS011;57641;51.416;5.506;2022-10-26T02:27:51;10.90;;;4.85;;
70247;SDS011;57641;51.416;5.506;2022-10-26T02:30:21;7.53;;;4.53;;
70247;SDS011;57641;51.416;5.506;2022-10-26T02:32:47;12.15;;;4.68;;
70247;SDS011;57641;51.416;5.506;2022-10-26T02:35:20;6.43;;;3.83;;
70247;SDS011;57641;51.416;5.506;2022-10-26T02:37:49;6.85;;;4.20;;
70247;SDS011;57641;51.416;5.506;2022-10-26T02:40:19;6.95;;;3.92;;
70247;SDS011;57641;51.416;5.506;2022-10-26T02:42:49;8.38;;;3.88;;
70247;SDS011;57641;51.416;5.506;2022-10-26T02:45:18;7.22;;;3.53;;
70247;SDS011;57641;51.416;5.506;2022-10-26T02:47:48;9.25;;;3.80;;
70247;SDS011;57641;51.416;5.506;2022-10-26T02:50:14;5.93;;;3.00;;
70247;SDS011;57641;51.416;5.506;2022-10-26T02:55:35;8.77;;;3.67;;
70247;SDS011;57641;51.416;5.506;2022-10-26T02:58:08;6.13;;;4.03;;
70247;SDS011;57641;51.416;5.506;2022-10-26T03:00:38;8.02;;;3.20;;
70247;SDS011;57641;51.416;5.506;2022-10-26T03:03:04;7.13;;;3.58;;
70247;SDS011;57641;51.416;5.506;2022-10-26T03:05:30;7.65;;;3.42;;
70247;SDS011;57641;51.416;5.506;2022-10-26T03:07:57;7.28;;;3.58;;
70247;SDS011;57641;51.416;5.506;2022-10-26T03:10:23;6.47;;;3.53;;
70247;SDS011;57641;51.416;5.506;2022-10-26T03:12:49;7.53;;;3.33;;
70247;SDS011;57641;51.416;5.506;2022-10-26T03:15:15;7.28;;;3.20;;
70247;SDS011;57641;51.416;5.506;2022-10-26T03:17:40;6.20;;;2.97;;
70247;SDS011;57641;51.416;5.506;2022-10-26T03:20:07;9.38;;;3.08;;
70247;SDS011;57641;51.416;5.506;2022-10-26T03:22:33;8.10;;;3.20;;
70247;SDS011;57641;51.416;5.506;2022-10-26T03:24:58;5.75;;;3.22;;
70247;SDS011;57641;51.416;5.506;2022-10-26T03:27:24;6.07;;;2.75;;
70247;SDS011;57641;51.416;5.506;2022-10-26T03:29:51;4.57;;;2.45;;
70247;SDS011;57641;51.416;5.506;2022-10-26T03:32:17;6.20;;;2.80;;
70247;SDS011;57641;51.416;5.506;2022-10-26T03:34:42;5.50;;;3.10;;
70247;SDS011;57641;51.416;5.506;2022-10-26T03:37:08;5.93;;;2.67;;
70247;SDS011;57641;51.416;5.506;2022-10-26T03:39:33;4.65;;;2.50;;
70247;SDS011;57641;51.416;5.506;2022-10-26T03:41:59;8.48;;;2.75;;
70247;SDS011;57641;51.416;5.506;2022-10-26T03:44:24;7.15;;;2.88;;
70247;SDS011;57641;51.416;5.506;2022-10-26T03:46:49;7.43;;;2.55;;
70247;SDS011;57641;51.416;5.506;2022-10-26T03:49:15;7.57;;;2.60;;
70247;SDS011;57641;51.416;5.506;2022-10-26T03:51:40;9.30;;;2.95;;
70247;SDS011;57641;51.416;5.506;2022-10-26T03:54:05;7.70;;;2.67;;
70247;SDS011;57641;51.416;5.506;2022-10-26T03:56:31;5.00;;;2.75;;
70247;SDS011;57641;51.416;5.506;2022-10-26T03:58:56;9.45;;;2.83;;
70247;SDS011;57641;51.416;5.506;2022-10-26T04:01:22;4.70;;;2.95;;
70247;SDS011;57641;51.416;5.506;2022-10-26T04:03:47;4.45;;;2.58;;
70247;SDS011;57641;51.416;5.506;2022-10-26T04:06:13;7.70;;;2.55;;
70247;SDS011;57641;51.416;5.506;2022-10-26T04:08:38;4.60;;;2.40;;
70247;SDS011;57641;51.416;5.506;2022-10-26T04:11:04;4.72;;;2.42;;
70247;SDS011;57641;51.416;5.506;2022-10-26T04:13:29;8.35;;;2.95;;
70247;SDS011;57641;51.416;5.506;2022-10-26T04:15:55;5.45;;;2.38;;
70247;SDS011;57641;51.416;5.506;2022-10-26T04:18:20;5.82;;;2.53;;
70247;SDS011;57641;51.416;5.506;2022-10-26T04:20:45;7.07;;;2.53;;
70247;SDS011;57641;51.416;5.506;2022-10-26T04:23:15;5.68;;;2.45;;
70247;SDS011;57641;51.416;5.506;2022-10-26T04:25:42;10.77;;;3.13;;
70247;SDS011;57641;51.416;5.506;2022-10-26T04:28:08;6.43;;;2.58;;
70247;SDS011;57641;51.416;5.506;2022-10-26T04:30:34;6.35;;;2.60;;
70247;SDS011;57641;51.416;5.506;2022-10-26T04:33:02;5.45;;;2.65;;
70247;SDS011;57641;51.416;5.506;2022-10-26T04:35:29;7.45;;;2.30;;
70247;SDS011;57641;51.416;5.506;2022-10-26T04:37:58;10.25;;;2.45;;
70247;SDS011;57641;51.416;5.506;2022-10-26T04:40:24;6.47;;;2.80;;
70247;SDS011;57641;51.416;5.506;2022-10-26T04:42:51;7.65;;;2.50;;
70247;SDS011;57641;51.416;5.506;2022-10-26T04:45:16;4.85;;;2.60;;
70247;SDS011;57641;51.416;5.506;2022-10-26T04:47:41;5.82;;;2.38;;
70247;SDS011;57641;51.416;5.506;2022-10-26T04:50:08;3.40;;;2.40;;
70247;SDS011;57641;51.416;5.506;2022-10-26T04:52:35;4.38;;;2.53;;
70247;SDS011;57641;51.416;5.506;2022-10-26T04:55:01;5.53;;;2.60;;
70247;SDS011;57641;51.416;5.506;2022-10-26T04:57:30;9.00;;;2.90;;
70247;SDS011;57641;51.416;5.506;2022-10-26T04:59:57;3.40;;;2.40;;
70247;SDS011;57641;51.416;5.506;2022-10-26T05:02:23;6.70;;;2.38;;
70247;SDS011;57641;51.416;5.506;2022-10-26T05:04:48;4.20;;;2.50;;
70247;SDS011;57641;51.416;5.506;2022-10-26T05:07:14;8.45;;;2.40;;
70247;SDS011;57641;51.416;5.506;2022-10-26T05:09:39;8.13;;;2.33;;
70247;SDS011;57641;51.416;5.506;2022-10-26T05:12:05;8.40;;;2.83;;
70247;SDS011;57641;51.416;5.506;2022-10-26T05:14:30;6.10;;;2.60;;
70247;SDS011;57641;51.416;5.506;2022-10-26T05:16:55;4.60;;;2.50;;
70247;SDS011;57641;51.416;5.506;2022-10-26T05:19:22;4.07;;;2.42;;
70247;SDS011;57641;51.416;5.506;2022-10-26T05:21:47;6.60;;;2.60;;
70247;SDS011;57641;51.416;5.506;2022-10-26T05:24:12;6.07;;;2.58;;
70247;SDS011;57641;51.416;5.506;2022-10-26T05:26:38;6.38;;;2.85;;
70247;SDS011;57641;51.416;5.506;2022-10-26T05:29:03;4.68;;;2.60;;
70247;SDS011;57641;51.416;5.506;2022-10-26T05:31:29;6.70;;;2.65;;
70247;SDS011;57641;51.416;5.506;2022-10-26T05:33:54;6.97;;;2.45;;
70247;SDS011;57641;51.416;5.506;2022-10-26T05:36:19;6.13;;;2.45;;
70247;SDS011;57641;51.416;5.506;2022-10-26T05:38:45;8.00;;;2.60;;
70247;SDS011;57641;51.416;5.506;2022-10-26T05:41:11;6.13;;;2.63;;
70247;SDS011;57641;51.416;5.506;2022-10-26T05:43:37;6.55;;;2.50;;
70247;SDS011;57641;51.416;5.506;2022-10-26T05:46:03;5.35;;;2.13;;
70247;SDS011;57641;51.416;5.506;2022-10-26T05:48:28;5.25;;;2.28;;
70247;SDS011;57641;51.416;5.506;2022-10-26T05:50:57;6.90;;;2.63;;
70247;SDS011;57641;51.416;5.506;2022-10-26T05:53:24;4.55;;;2.30;;
70247;SDS011;57641;51.416;5.506;2022-10-26T05:55:50;4.55;;;2.50;;
70247;SDS011;57641;51.416;5.506;2022-10-26T05:58:16;5.60;;;2.47;;
70247;SDS011;57641;51.416;5.506;2022-10-26T06:06:02;5.45;;;2.30;;
70247;SDS011;57641;51.416;5.506;2022-10-26T06:08:28;8.52;;;2.85;;
70247;SDS011;57641;51.416;5.506;2022-10-26T06:10:55;8.57;;;3.05;;
70247;SDS011;57641;51.416;5.506;2022-10-26T06:13:26;8.40;;;2.53;;
70247;SDS011;57641;51.416;5.506;2022-10-26T06:24:13;7.47;;;2.30;;
70247;SDS011;57641;51.416;5.506;2022-10-26T06:29:57;6.13;;;2.40;;
70247;SDS011;57641;51.416;5.506;2022-10-26T06:32:26;5.38;;;2.45;;
70247;SDS011;57641;51.416;5.506;2022-10-26T06:34:54;7.55;;;2.33;;
70247;SDS011;57641;51.416;5.506;2022-10-26T06:40:06;5.25;;;2.47;;
70247;SDS011;57641;51.416;5.506;2022-10-26T06:42:33;3.88;;;2.78;;
70247;SDS011;57641;51.416;5.506;2022-10-26T06:44:59;6.25;;;2.38;;
70247;SDS011;57641;51.416;5.506;2022-10-26T06:48:12;5.20;;;2.45;;
70247;SDS011;57641;51.416;5.506;2022-10-26T06:50:28;6.38;;;3.50;;
70247;SDS011;57641;51.416;5.506;2022-10-26T06:55:53;8.98;;;2.58;;
70247;SDS011;57641;51.416;5.506;2022-10-26T06:58:22;4.80;;;2.70;;
70247;SDS011;57641;51.416;5.506;2022-10-26T07:00:53;6.10;;;2.80;;
70247;SDS011;57641;51.416;5.506;2022-10-26T07:03:20;5.90;;;2.60;;
70247;SDS011;57641;51.416;5.506;2022-10-26T07:05:45;5.75;;;2.50;;
70247;SDS011;57641;51.416;5.506;2022-10-26T07:08:11;6.00;;;2.42;;
70247;SDS011;57641;51.416;5.506;2022-10-26T07:10:37;8.00;;;2.75;;
70247;SDS011;57641;51.416;5.506;2022-10-26T07:13:06;10.13;;;2.90;;
70247;SDS011;57641;51.416;5.506;2022-10-26T07:15:36;6.03;;;2.70;;
70247;SDS011;57641;51.416;5.506;2022-10-26T07:18:03;4.68;;;2.17;;
70247;SDS011;57641;51.416;5.506;2022-10-26T07:20:30;4.38;;;2.45;;
70247;SDS011;57641;51.416;5.506;2022-10-26T07:22:59;5.75;;;2.60;;
70247;SDS011;57641;51.416;5.506;2022-10-26T07:25:25;5.15;;;2.60;;
70247;SDS011;57641;51.416;5.506;2022-10-26T07:27:50;6.68;;;2.35;;
70247;SDS011;57641;51.416;5.506;2022-10-26T07:30:16;7.32;;;3.05;;
70247;SDS011;57641;51.416;5.506;2022-10-26T07:32:42;5.07;;;2.70;;
70247;SDS011;57641;51.416;5.506;2022-10-26T07:35:08;5.15;;;2.50;;
70247;SDS011;57641;51.416;5.506;2022-10-26T07:37:34;5.75;;;2.72;;
70247;SDS011;57641;51.416;5.506;2022-10-26T07:39:59;4.57;;;2.50;;
70247;SDS011;57641;51.416;5.506;2022-10-26T07:42:24;6.80;;;2.67;;
70247;SDS011;57641;51.416;5.506;2022-10-26T07:44:50;6.03;;;2.70;;
70247;SDS011;57641;51.416;5.506;2022-10-26T07:47:15;4.93;;;2.47;;
70247;SDS011;57641;51.416;5.506;2022-10-26T07:49:41;8.23;;;2.50;;
70247;SDS011;57641;51.416;5.506;2022-10-26T07:52:07;3.80;;;2.75;;
70247;SDS011;57641;51.416;5.506;2022-10-26T07:54:33;5.30;;;3.08;;
70247;SDS011;57641;51.416;5.506;2022-10-26T07:56:59;5.50;;;2.55;;
70247;SDS011;57641;51.416;5.506;2022-10-26T07:59:25;4.82;;;2.60;;
70247;SDS011;57641;51.416;5.506;2022-10-26T08:01:50;5.95;;;2.33;;
70247;SDS011;57641;51.416;5.506;2022-10-26T08:04:16;6.55;;;2.40;;
70247;SDS011;57641;51.416;5.506;2022-10-26T08:06:42;7.28;;;2.50;;
70247;SDS011;57641;51.416;5.506;2022-10-26T08:09:07;5.10;;;2.35;;
70247;SDS011;57641;51.416;5.506;2022-10-26T08:11:33;6.43;;;2.05;;
70247;SDS011;57641;51.416;5.506;2022-10-26T08:14:01;4.95;;;2.45;;
70247;SDS011;57641;51.416;5.506;2022-10-26T08:16:27;4.03;;;2.20;;
70247;SDS011;57641;51.416;5.506;2022-10-26T08:18:53;4.35;;;2.17;;
70247;SDS011;57641;51.416;5.506;2022-10-26T08:21:18;4.82;;;2.15;;
70247;SDS011;57641;51.416;5.506;2022-10-26T08:23:44;5.22;;;2.08;;
70247;SDS011;57641;51.416;5.506;2022-10-26T08:26:10;5.40;;;2.20;;
70247;SDS011;57641;51.416;5.506;2022-10-26T08:28:35;4.47;;;1.92;;
70247;SDS011;57641;51.416;5.506;2022-10-26T08:31:02;3.92;;;2.20;;
70247;SDS011;57641;51.416;5.506;2022-10-26T08:33:28;3.42;;;1.95;;
70247;SDS011;57641;51.416;5.506;2022-10-26T08:35:57;7.38;;;2.33;;
70247;SDS011;57641;51.416;5.506;2022-10-26T08:38:24;4.35;;;1.77;;
70247;SDS011;57641;51.416;5.506;2022-10-26T08:40:50;4.53;;;2.20;;
70247;SDS011;57641;51.416;5.506;2022-10-26T08:43:36;4.78;;;2.25;;
70247;SDS011;57641;51.416;5.506;2022-10-26T08:46:13;5.63;;;2.20;;
70247;SDS011;57641;51.416;5.506;2022-10-26T08:51:38;4.32;;;1.85;;
70247;SDS011;57641;51.416;5.506;2022-10-26T08:54:13;4.00;;;1.80;;
70247;SDS011;57641;51.416;5.506;2022-10-26T08:56:48;5.78;;;1.85;;
70247;SDS011;57641;51.416;5.506;2022-10-26T08:59:22;6.97;;;1.65;;
70247;SDS011;57641;51.416;5.506;2022-10-26T09:01:59;6.22;;;1.80;;
70247;SDS011;57641;51.416;5.506;2022-10-26T09:04:27;6.82;;;1.92;;
70247;SDS011;57641;51.416;5.506;2022-10-26T09:12:21;3.20;;;1.65;;
70247;SDS011;57641;51.416;5.506;2022-10-26T09:17:34;4.45;;;2.20;;
70247;SDS011;57641;51.416;5.506;2022-10-26T09:20:29;3.35;;;2.17;;
70247;SDS011;57641;51.416;5.506;2022-10-26T09:25:54;5.53;;;2.00;;
70247;SDS011;57641;51.416;5.506;2022-10-26T09:28:27;3.53;;;1.80;;
70247;SDS011;57641;51.416;5.506;2022-10-26T09:30:58;3.63;;;1.85;;
70247;SDS011;57641;51.416;5.506;2022-10-26T09:33:25;3.58;;;1.75;;
70247;SDS011;57641;51.416;5.506;2022-10-26T09:36:01;3.38;;;1.85;;
70247;SDS011;57641;51.416;5.506;2022-10-26T09:38:33;5.47;;;2.20;;
70247;SDS011;57641;51.416;5.506;2022-10-26T09:41:07;4.05;;;1.85;;
70247;SDS011;57641;51.416;5.506;2022-10-26T09:46:27;7.40;;;1.90;;
70247;SDS011;57641;51.416;5.506;2022-10-26T09:49:20;2.70;;;1.73;;
70247;SDS011;57641;51.416;5.506;2022-10-26T09:51:54;6.20;;;2.25;;
70247;SDS011;57641;51.416;5.506;2022-10-26T09:54:20;4.15;;;1.92;;
70247;SDS011;57641;51.416;5.506;2022-10-26T09:56:55;5.72;;;2.13;;
70247;SDS011;57641;51.416;5.506;2022-10-26T09:59:25;4.25;;;1.70;;
70247;SDS011;57641;51.416;5.506;2022-10-26T10:01:52;5.28;;;1.90;;
70247;SDS011;57641;51.416;5.506;2022-10-26T10:04:19;6.22;;;1.83;;
70247;SDS011;57641;51.416;5.506;2022-10-26T10:07:23;4.47;;;1.77;;
70247;SDS011;57641;51.416;5.506;2022-10-26T10:09:42;5.22;;;1.90;;
70247;SDS011;57641;51.416;5.506;2022-10-26T10:12:15;4.82;;;1.90;;
70247;SDS011;57641;51.416;5.506;2022-10-26T10:14:54;5.00;;;2.03;;
70247;SDS011;57641;51.416;5.506;2022-10-26T10:17:23;5.38;;;1.75;;
70247;SDS011;57641;51.416;5.506;2022-10-26T10:19:49;5.82;;;1.80;;
70247;SDS011;57641;51.416;5.506;2022-10-26T10:24:57;4.43;;;1.70;;
70247;SDS011;57641;51.416;5.506;2022-10-26T10:27:25;4.40;;;1.50;;
70247;SDS011;57641;51.416;5.506;2022-10-26T10:29:53;3.15;;;1.50;;
70247;SDS011;57641;51.416;5.506;2022-10-26T10:32:24;3.00;;;1.65;;
70247;SDS011;57641;51.416;5.506;2022-10-26T10:34:52;5.70;;;1.90;;
70247;SDS011;57641;51.416;5.506;2022-10-26T10:37:35;4.32;;;2.03;;
70247;SDS011;57641;51.416;5.506;2022-10-26T10:40:23;6.72;;;1.80;;
70247;SDS011;57641;51.416;5.506;2022-10-26T10:42:53;3.45;;;1.80;;
70247;SDS011;57641;51.416;5.506;2022-10-26T10:45:27;5.95;;;2.17;;
70247;SDS011;57641;51.416;5.506;2022-10-26T10:48:14;3.85;;;1.63;;
70247;SDS011;57641;51.416;5.506;2022-10-26T10:51:01;6.00;;;1.90;;
70247;SDS011;57641;51.416;5.506;2022-10-26T10:53:34;5.32;;;1.83;;
70247;SDS011;57641;51.416;5.506;2022-10-26T10:58:36;2.63;;;1.42;;
70247;SDS011;57641;51.416;5.506;2022-10-26T11:01:06;2.40;;;1.35;;
70247;SDS011;57641;51.416;5.506;2022-10-26T11:03:40;4.65;;;1.75;;
70247;SDS011;57641;51.416;5.506;2022-10-26T11:06:13;2.53;;;1.40;;
70247;SDS011;57641;51.416;5.506;2022-10-26T11:14:08;4.25;;;1.30;;
70247;SDS011;57641;51.416;5.506;2022-10-26T11:16:41;4.03;;;1.45;;
70247;SDS011;57641;51.416;5.506;2022-10-26T11:19:23;2.78;;;1.60;;
70247;SDS011;57641;51.416;5.506;2022-10-26T11:21:59;4.22;;;1.67;;
70247;SDS011;57641;51.416;5.506;2022-10-26T11:27:11;3.10;;;1.80;;
70247;SDS011;57641;51.416;5.506;2022-10-26T11:29:50;5.43;;;1.60;;
70247;SDS011;57641;51.416;5.506;2022-10-26T11:48:54;4.03;;;1.50;;
70247;SDS011;57641;51.416;5.506;2022-10-26T11:54:06;3.63;;;1.38;;
70247;SDS011;57641;51.416;5.506;2022-10-26T11:56:42;3.20;;;1.13;;
70247;SDS011;57641;51.416;5.506;2022-10-26T11:59:16;2.30;;;1.20;;
70247;SDS011;57641;51.416;5.506;2022-10-26T12:01:55;4.40;;;1.58;;
70247;SDS011;57641;51.416;5.506;2022-10-26T12:04:27;2.83;;;1.50;;
70247;SDS011;57641;51.416;5.506;2022-10-26T12:06:55;4.35;;;1.30;;
70247;SDS011;57641;51.416;5.506;2022-10-26T12:09:25;2.97;;;1.30;;
70247;SDS011;57641;51.416;5.506;2022-10-26T12:12:05;5.97;;;1.45;;
70247;SDS011;57641;51.416;5.506;2022-10-26T12:14:48;3.85;;;1.23;;
70247;SDS011;57641;51.416;5.506;2022-10-26T12:17:34;2.60;;;1.00;;
70247;SDS011;57641;51.416;5.506;2022-10-26T12:23:10;4.88;;;1.48;;
70247;SDS011;57641;51.416;5.506;2022-10-26T12:25:36;5.97;;;1.80;;
70247;SDS011;57641;51.416;5.506;2022-10-26T12:28:02;2.53;;;1.00;;
70247;SDS011;57641;51.416;5.506;2022-10-26T12:32:59;3.72;;;1.65;;
70247;SDS011;57641;51.416;5.506;2022-10-26T12:35:42;4.13;;;1.23;;
70247;SDS011;57641;51.416;5.506;2022-10-26T12:40:46;5.57;;;1.30;;
70247;SDS011;57641;51.416;5.506;2022-10-26T12:45:37;3.05;;;1.10;;
70247;SDS011;57641;51.416;5.506;2022-10-26T12:48:04;3.65;;;1.17;;
70247;SDS011;57641;51.416;5.506;2022-10-26T12:50:45;4.22;;;1.00;;
70247;SDS011;57641;51.416;5.506;2022-10-26T12:53:11;1.90;;;1.20;;
70247;SDS011;57641;51.416;5.506;2022-10-26T12:58:29;3.15;;;1.30;;
70247;SDS011;57641;51.416;5.506;2022-10-26T13:08:53;2.08;;;1.10;;
70247;SDS011;57641;51.416;5.506;2022-10-26T13:11:28;4.25;;;1.00;;
70247;SDS011;57641;51.416;5.506;2022-10-26T13:14:07;3.67;;;1.23;;
70247;SDS011;57641;51.416;5.506;2022-10-26T13:17:05;3.33;;;1.17;;
70247;SDS011;57641;51.416;5.506;2022-10-26T13:19:47;3.38;;;1.13;;
70247;SDS011;57641;51.416;5.506;2022-10-26T13:22:14;5.53;;;1.02;;
70247;SDS011;57641;51.416;5.506;2022-10-26T13:24:47;2.25;;;1.08;;
70247;SDS011;57641;51.416;5.506;2022-10-26T13:32:36;3.35;;;1.00;;
70247;SDS011;57641;51.416;5.506;2022-10-26T13:35:04;6.50;;;1.38;;
70247;SDS011;57641;51.416;5.506;2022-10-26T13:37:39;2.50;;;1.42;;
70247;SDS011;57641;51.416;5.506;2022-10-26T13:40:07;3.67;;;1.00;;
70247;SDS011;57641;51.416;5.506;2022-10-26T13:42:41;2.72;;;0.90;;
70247;SDS011;57641;51.416;5.506;2022-10-26T13:45:12;2.45;;;1.05;;
70247;SDS011;57641;51.416;5.506;2022-10-26T13:50:12;3.45;;;1.05;;
70247;SDS011;57641;51.416;5.506;2022-10-26T13:52:43;1.65;;;1.02;;
70247;SDS011;57641;51.416;5.506;2022-10-26T13:55:19;2.70;;;1.00;;
70247;SDS011;57641;51.416;5.506;2022-10-26T14:00:29;3.30;;;1.15;;
70247;SDS011;57641;51.416;5.506;2022-10-26T14:02:55;1.83;;;1.05;;
70247;SDS011;57641;51.416;5.506;2022-10-26T14:05:20;5.97;;;1.20;;
70247;SDS011;57641;51.416;5.506;2022-10-26T14:12:58;6.10;;;1.15;;
70247;SDS011;57641;51.416;5.506;2022-10-26T14:15:26;3.88;;;1.00;;
70247;SDS011;57641;51.416;5.506;2022-10-26T14:17:56;4.15;;;1.13;;
70247;SDS011;57641;51.416;5.506;2022-10-26T14:20:24;3.22;;;0.90;;
70247;SDS011;57641;51.416;5.506;2022-10-26T14:22:52;3.97;;;0.90;;
70247;SDS011;57641;51.416;5.506;2022-10-26T14:25:21;1.48;;;0.80;;
70247;SDS011;57641;51.416;5.506;2022-10-26T14:27:55;2.15;;;1.05;;
70247;SDS011;57641;51.416;5.506;2022-10-26T14:30:26;1.10;;;1.00;;
70247;SDS011;57641;51.416;5.506;2022-10-26T14:32:53;3.97;;;1.00;;
70247;SDS011;57641;51.416;5.506;2022-10-26T14:35:30;3.78;;;1.15;;
70247;SDS011;57641;51.416;5.506;2022-10-26T14:38:04;3.63;;;1.00;;
70247;SDS011;57641;51.416;5.506;2022-10-26T14:40:36;3.80;;;1.00;;
70247;SDS011;57641;51.416;5.506;2022-10-26T14:43:02;3.92;;;1.20;;
70247;SDS011;57641;51.416;5.506;2022-10-26T14:45:30;4.80;;;1.10;;
70247;SDS011;57641;51.416;5.506;2022-10-26T14:47:59;3.45;;;1.30;;
70247;SDS011;57641;51.416;5.506;2022-10-26T14:50:26;4.20;;;1.00;;
70247;SDS011;57641;51.416;5.506;2022-10-26T14:52:56;5.20;;;1.00;;
70247;SDS011;57641;51.416;5.506;2022-10-26T14:55:26;7.45;;;1.30;;
70247;SDS011;57641;51.416;5.506;2022-10-26T14:57:53;2.35;;;1.20;;
70247;SDS011;57641;51.416;5.506;2022-10-26T15:00:41;4.55;;;1.00;;
70247;SDS011;57641;51.416;5.506;2022-10-26T15:03:07;2.05;;;0.95;;
70247;SDS011;57641;51.416;5.506;2022-10-26T15:05:40;2.92;;;1.00;;
70247;SDS011;57641;51.416;5.506;2022-10-26T15:08:39;1.65;;;0.88;;
70247;SDS011;57641;51.416;5.506;2022-10-26T15:11:11;4.47;;;0.95;;
70247;SDS011;57641;51.416;5.506;2022-10-26T15:13:39;3.80;;;1.20;;
70247;SDS011;57641;51.416;5.506;2022-10-26T15:16:18;3.33;;;1.02;;
70247;SDS011;57641;51.416;5.506;2022-10-26T15:18:47;2.53;;;0.90;;
70247;SDS011;57641;51.416;5.506;2022-10-26T15:23:51;2.15;;;1.10;;
70247;SDS011;57641;51.416;5.506;2022-10-26T15:26:19;2.65;;;1.10;;
70247;SDS011;57641;51.416;5.506;2022-10-26T15:28:44;5.03;;;1.30;;
70247;SDS011;57641;51.416;5.506;2022-10-26T15:33:43;3.92;;;1.55;;
70247;SDS011;57641;51.416;5.506;2022-10-26T15:36:28;2.47;;;1.20;;
70247;SDS011;57641;51.416;5.506;2022-10-26T15:38:54;5.38;;;1.83;;
70247;SDS011;57641;51.416;5.506;2022-10-26T15:41:21;4.35;;;1.80;;
70247;SDS011;57641;51.416;5.506;2022-10-26T15:43:52;5.07;;;1.77;;
70247;SDS011;57641;51.416;5.506;2022-10-26T15:46:23;3.75;;;2.15;;
70247;SDS011;57641;51.416;5.506;2022-10-26T15:48:56;6.20;;;1.88;;
70247;SDS011;57641;51.416;5.506;2022-10-26T15:51:24;2.83;;;1.13;;
70247;SDS011;57641;51.416;5.506;2022-10-26T15:53:50;2.38;;;1.00;;
70247;SDS011;57641;51.416;5.506;2022-10-26T15:56:17;3.25;;;1.23;;
70247;SDS011;57641;51.416;5.506;2022-10-26T15:58:44;2.72;;;1.00;;
70247;SDS011;57641;51.416;5.506;2022-10-26T16:01:15;4.55;;;1.30;;
70247;SDS011;57641;51.416;5.506;2022-10-26T16:03:42;3.15;;;0.90;;
70247;SDS011;57641;51.416;5.506;2022-10-26T16:06:10;6.13;;;1.48;;
70247;SDS011;57641;51.416;5.506;2022-10-26T16:08:40;3.92;;;1.20;;
70247;SDS011;57641;51.416;5.506;2022-10-26T16:11:12;3.85;;;1.42;;
70247;SDS011;57641;51.416;5.506;2022-10-26T16:13:38;3.85;;;1.05;;
70247;SDS011;57641;51.416;5.506;2022-10-26T16:16:03;3.78;;;1.10;;
70247;SDS011;57641;51.416;5.506;2022-10-26T16:18:29;3.65;;;1.08;;
70247;SDS011;57641;51.416;5.506;2022-10-26T16:20:54;6.63;;;1.55;;
70247;SDS011;57641;51.416;5.506;2022-10-26T16:23:20;3.28;;;1.08;;
70247;SDS011;57641;51.416;5.506;2022-10-26T16:25:45;3.80;;;1.20;;
70247;SDS011;57641;51.416;5.506;2022-10-26T16:28:12;10.75;;;1.35;;
70247;SDS011;57641;51.416;5.506;2022-10-26T16:30:39;7.28;;;1.58;;
70247;SDS011;57641;51.416;5.506;2022-10-26T16:33:05;5.00;;;1.40;;
70247;SDS011;57641;51.416;5.506;2022-10-26T16:35:30;5.97;;;1.58;;
70247;SDS011;57641;51.416;5.506;2022-10-26T16:37:56;9.32;;;1.70;;
70247;SDS011;57641;51.416;5.506;2022-10-26T16:40:21;5.07;;;1.45;;
70247;SDS011;57641;51.416;5.506;2022-10-26T16:42:47;4.60;;;1.55;;
70247;SDS011;57641;51.416;5.506;2022-10-26T16:45:13;5.25;;;1.25;;
70247;SDS011;57641;51.416;5.506;2022-10-26T16:47:39;6.80;;;1.48;;
70247;SDS011;57641;51.416;5.506;2022-10-26T16:50:09;4.32;;;1.30;;
70247;SDS011;57641;51.416;5.506;2022-10-26T16:52:36;7.15;;;1.48;;
70247;SDS011;57641;51.416;5.506;2022-10-26T16:55:03;6.25;;;2.15;;
70247;SDS011;57641;51.416;5.506;2022-10-26T16:57:30;9.00;;;2.03;;
70247;SDS011;57641;51.416;5.506;2022-10-26T16:59:56;5.63;;;1.90;;
70247;SDS011;57641;51.416;5.506;2022-10-26T17:02:22;6.72;;;1.48;;
70247;SDS011;57641;51.416;5.506;2022-10-26T17:04:48;5.50;;;1.67;;
70247;SDS011;57641;51.416;5.506;2022-10-26T17:07:13;5.88;;;1.33;;
70247;SDS011;57641;51.416;5.506;2022-10-26T17:09:39;10.60;;;1.60;;
70247;SDS011;57641;51.416;5.506;2022-10-26T17:12:05;8.02;;;1.55;;
70247;SDS011;57641;51.416;5.506;2022-10-26T17:14:30;5.35;;;1.90;;
70247;SDS011;57641;51.416;5.506;2022-10-26T17:16:56;7.18;;;1.80;;
70247;SDS011;57641;51.416;5.506;2022-10-26T17:19:22;6.57;;;1.80;;
70247;SDS011;57641;51.416;5.506;2022-10-26T17:21:47;6.05;;;1.63;;